Time;durP1;ratioP1;P1;durP2;ratioP2;P2;SDS_P1;SDS_P2;PMS_P1;PMS_P2;Temp;Humidity;BMP_temperature;BMP_pressure;BME280_temperature;BME280_humidity;BME280_pressure;Samples;Min_cycle;Max_cycle;Signal;HPM_P1;HPM_P2
2022/12/13 00:08:01;;;;;;;7.88;3.72;;;;;;;-2.65;72.84;99670.59;30617279;28;97510;-71
2022/12/13 00:23:01;;;;;;;7.45;4.35;;;;;;;-2.80;73.66;99675.00;30616281;28;96645;-67
2022/12/13 00:38:01;;;;;;;8.35;5.57;;;;;;;-2.67;73.42;99679.44;30614176;28;96581;-71
2022/12/13 00:53:02;;;;;;;9.32;5.43;;;;;;;-2.63;73.09;99686.13;30613074;28;97414;-68
2022/12/13 01:08:03;;;;;;;7.38;4.40;;;;;;;-2.69;73.30;99686.50;30611556;28;97121;-71
2022/12/13 01:23:05;;;;;;;7.72;5.03;;;;;;;-2.69;73.91;99692.56;30501758;28;97435;-64
2022/12/13 01:38:05;;;;;;;9.10;6.05;;;;;;;-2.71;73.50;99694.44;30490211;28;96884;-63
2022/12/13 01:53:08;;;;;;;6.53;4.57;;;;;;;-2.92;73.50;99701.84;30498101;28;97537;-68
2022/12/13 02:08:12;;;;;;;10.85;5.57;;;;;;;-3.02;74.22;99711.16;30507834;28;97137;-66
2022/12/13 02:23:18;;;;;;;8.47;4.57;;;;;;;-3.19;74.25;99707.81;30507256;28;96888;-70
2022/12/13 02:38:40;;;;;;;6.15;3.85;;;;;;;-3.17;74.07;99707.72;30506066;28;97570;-63
2022/12/13 02:53:42;;;;;;;7.43;4.90;;;;;;;-3.33;73.38;99713.88;30504637;28;96849;-68
2022/12/13 03:09:28;;;;;;;5.38;3.65;;;;;;;-3.37;73.71;99714.19;30502342;28;97109;-67
2022/12/13 03:24:28;;;;;;;8.55;5.03;;;;;;;-3.64;73.52;99720.09;30500115;28;96710;-66
2022/12/13 03:39:29;;;;;;;5.57;3.67;;;;;;;-4.20;72.29;99720.69;30499949;28;97690;-70
2022/12/13 03:54:29;;;;;;;8.80;3.38;;;;;;;-4.67;73.61;99724.22;30498413;28;96781;-69
2022/12/13 04:09:29;;;;;;;4.32;2.63;;;;;;;-5.01;73.81;99721.69;30495468;28;96815;-68
2022/12/13 04:24:30;;;;;;;6.18;4.13;;;;;;;-5.14;74.46;99733.66;30494745;28;97210;-69
2022/12/13 04:39:30;;;;;;;7.65;4.03;;;;;;;-4.78;74.50;99733.44;30493489;28;97103;-68
2022/12/13 04:54:31;;;;;;;5.10;4.07;;;;;;;-4.52;74.43;99728.56;30493047;28;96724;-67
2022/12/13 05:09:32;;;;;;;7.10;4.13;;;;;;;-4.40;74.35;99721.00;30487155;28;97100;-69
2022/12/13 05:24:32;;;;;;;8.85;4.55;;;;;;;-4.28;74.33;99723.75;30534909;28;96774;-73
2022/12/13 05:39:33;;;;;;;12.32;7.30;;;;;;;-4.20;74.59;99723.31;30628835;28;96756;-71
2022/12/13 05:54:33;;;;;;;12.25;6.75;;;;;;;-4.15;75.22;99730.84;30613927;28;99169;-76
2022/12/13 06:09:33;;;;;;;9.45;6.05;;;;;;;-4.08;74.65;99737.38;30613423;28;97086;-67
2022/12/13 06:24:34;;;;;;;11.60;7.38;;;;;;;-3.87;75.41;99731.84;30611395;28;97713;-71
2022/12/13 06:39:35;;;;;;;12.00;6.55;;;;;;;-3.68;75.23;99742.03;30623715;28;97003;-70
2022/12/13 06:54:35;;;;;;;12.65;5.82;;;;;;;-3.62;75.12;99752.09;30641762;28;97005;-63
2022/12/13 07:09:36;;;;;;;11.55;6.70;;;;;;;-3.49;74.49;99765.22;30638450;28;97173;-64
2022/12/13 07:24:36;;;;;;;12.45;7.97;;;;;;;-3.66;74.80;99779.22;30602479;28;97665;-64
2022/12/13 07:39:37;;;;;;;11.57;7.28;;;;;;;-3.40;75.21;99780.31;30606767;28;96870;-69
2022/12/13 07:54:37;;;;;;;11.90;6.57;;;;;;;-3.51;74.36;99785.28;30547063;28;96964;-69
2022/12/13 08:09:38;;;;;;;10.75;7.40;;;;;;;-3.11;74.83;99786.38;30533660;28;96649;-68
2022/12/13 08:24:39;;;;;;;5.90;4.43;;;;;;;-1.66;71.94;99783.38;30546909;28;97874;-67
2022/12/13 08:39:39;;;;;;;11.10;5.90;;;;;;;-0.76;69.34;99796.47;30609563;28;98208;-68
2022/12/13 08:54:40;;;;;;;7.60;5.25;;;;;;;2.88;63.73;99791.22;30609815;28;96740;-68
2022/12/13 09:09:40;;;;;;;7.93;4.35;;;;;;;-0.57;67.18;99816.94;30506847;28;96759;-69
2022/12/13 09:24:41;;;;;;;8.20;4.00;;;;;;;-1.45;68.38;99815.94;30489280;28;96808;-66
2022/12/13 09:39:41;;;;;;;9.73;4.00;;;;;;;3.37;63.84;99800.16;30514473;28;97437;-69
2022/12/13 09:54:42;;;;;;;7.90;4.00;;;;;;;5.42;57.27;99804.47;30573191;28;96818;-69
2022/12/13 10:09:43;;;;;;;10.02;4.78;;;;;;;2.83;57.77;99815.28;30605225;28;97227;-71
2022/12/13 10:25:02;;;;;;;6.97;4.80;;;;;;;4.89;56.89;99807.72;30624462;28;97233;-66
2022/12/13 10:40:03;;;;;;;8.93;4.93;;;;;;;6.83;52.03;99803.19;30622541;28;96823;-68
2022/12/13 10:55:16;;;;;;;7.88;4.88;;;;;;;7.62;51.35;99798.59;30621954;28;97248;-67
2022/12/13 11:10:22;;;;;;;8.13;4.63;;;;;;;5.49;51.01;99788.03;30595026;28;97230;-67
2022/12/13 11:25:29;;;;;;;8.15;5.25;;;;;;;0.71;55.28;99789.31;30499536;28;97263;-71
2022/12/13 11:40:40;;;;;;;8.65;5.25;;;;;;;1.03;56.45;99788.59;30498188;28;96852;-73
2022/12/13 11:55:46;;;;;;;9.20;5.53;;;;;;;3.32;54.63;99783.94;30499788;28;96773;-73
2022/12/13 12:10:51;;;;;;;7.20;4.57;;;;;;;5.72;53.91;99776.06;30512609;28;97417;-68
2022/12/13 12:26:14;;;;;;;7.50;4.60;;;;;;;12.99;38.87;99786.47;30613862;28;96740;-69
2022/12/13 12:41:23;;;;;;;8.43;4.80;;;;;;;13.87;34.35;99799.28;30610703;28;96595;-71
2022/12/13 12:56:33;;;;;;;9.27;4.93;;;;;;;16.86;30.52;99796.94;30609033;28;96568;-71
2022/12/13 13:11:40;;;;;;;7.53;4.57;;;;;;;17.69;26.88;99794.00;30607019;28;96654;-73
2022/12/13 13:26:46;;;;;;;8.30;5.17;;;;;;;17.33;25.57;99801.06;30605643;28;96722;-72
2022/12/13 13:42:13;;;;;;;11.53;5.33;;;;;;;17.02;25.47;99811.72;30585990;28;97039;-71
2022/12/13 13:57:47;;;;;;;6.83;4.30;;;;;;;13.24;26.43;99827.97;30616547;28;97340;-71
2022/12/13 14:13:08;;;;;;;11.47;5.43;;;;;;;10.15;30.42;99840.09;30539956;28;97246;-76
2022/12/13 14:28:43;;;;;;;8.53;5.10;;;;;;;4.29;36.98;99855.41;30496439;28;97089;-75
2022/12/13 14:43:44;;;;;;;9.73;5.53;;;;;;;1.03;41.19;99861.25;30493822;28;97273;-75
2022/12/13 14:59:02;;;;;;;11.30;5.72;;;;;;;-1.43;45.83;99857.63;30502008;28;96716;-74
2022/12/13 15:14:05;;;;;;;14.90;7.65;;;;;;;-2.81;49.09;99852.38;30498563;28;96899;-64
2022/12/13 15:29:07;;;;;;;100.32;35.17;;;;;;;-3.82;51.47;99871.22;30594839;28;96910;-68
2022/12/13 15:44:25;;;;;;;28.30;12.27;;;;;;;-4.45;53.15;99870.31;30606948;28;97296;-69
2022/12/13 15:59:33;;;;;;;32.38;15.13;;;;;;;-5.03;54.58;99866.41;30605553;28;96903;-69
2022/12/13 16:14:51;;;;;;;61.08;30.38;;;;;;;-5.31;56.01;99864.38;30603482;28;96697;-71
2022/12/13 16:29:51;;;;;;;47.95;24.67;;;;;;;-5.51;57.41;99883.53;30603514;28;97485;-70
2022/12/13 16:44:52;;;;;;;12.02;6.63;;;;;;;-5.95;58.38;99889.94;30557563;28;97845;-69
2022/12/13 16:59:53;;;;;;;19.13;10.07;;;;;;;-6.36;59.56;99892.75;30492184;28;96548;-70
2022/12/13 17:14:53;;;;;;;14.05;9.48;;;;;;;-6.12;60.45;99895.97;30490693;28;97458;-75
2022/12/13 17:29:54;;;;;;;21.83;14.20;;;;;;;-6.15;60.60;99899.53;30631605;28;96683;-67
2022/12/13 17:44:55;;;;;;;24.20;10.25;;;;;;;-6.22;61.14;99900.75;30646153;28;97786;-66
2022/12/13 17:59:55;;;;;;;16.77;10.77;;;;;;;-6.42;61.61;99896.47;30644281;28;97458;-67
2022/12/13 18:14:56;;;;;;;25.77;15.23;;;;;;;-6.63;61.75;99924.16;30644676;28;97140;-71
2022/12/13 18:29:57;;;;;;;26.02;14.77;;;;;;;-6.70;62.93;99917.56;30641556;28;96656;-71
2022/12/13 18:44:57;;;;;;;19.80;10.85;;;;;;;-6.49;63.44;99918.38;30622089;28;96747;-70
2022/12/13 18:59:58;;;;;;;18.30;11.02;;;;;;;-6.26;63.12;99914.75;30624214;28;97410;-65
2022/12/13 19:14:58;;;;;;;35.65;16.63;;;;;;;-6.00;63.40;99915.28;30612844;28;97067;-65
2022/12/13 19:29:58;;;;;;;46.33;26.45;;;;;;;-6.18;62.78;99912.66;30545203;28;97910;-66
2022/12/13 19:44:59;;;;;;;21.67;14.80;;;;;;;-6.68;62.65;99906.22;30548723;28;97323;-67
2022/12/13 19:59:59;;;;;;;42.67;18.67;;;;;;;-7.29;63.85;99914.88;30542207;28;97550;-67
2022/12/13 20:15:01;;;;;;;47.47;23.57;;;;;;;-7.63;64.39;99923.16;30547252;28;97993;-70
2022/12/13 20:30:03;;;;;;;40.07;23.57;;;;;;;-7.79;65.22;99936.72;30615124;28;96820;-67
2022/12/13 20:45:04;;;;;;;40.73;22.13;;;;;;;-7.56;65.49;99932.38;30609276;28;97414;-68
2022/12/13 21:00:07;;;;;;;34.07;17.20;;;;;;;-7.26;65.03;99937.19;30602486;28;96946;-67
2022/12/13 21:15:07;;;;;;;34.00;19.40;;;;;;;-7.30;65.07;99910.59;30600258;28;96930;-67
2022/12/13 21:30:08;;;;;;;31.87;17.23;;;;;;;-7.11;65.12;99915.84;30600134;28;97658;-67
2022/12/13 21:45:09;;;;;;;32.25;17.00;;;;;;;-7.15;65.42;99906.53;30600254;28;96795;-68
2022/12/13 22:00:10;;;;;;;37.20;19.33;;;;;;;-7.63;64.70;99905.91;30573904;28;97229;-68
2022/12/13 22:15:13;;;;;;;43.13;22.13;;;;;;;-8.19;65.74;99908.06;30620128;28;96710;-67
2022/12/13 22:30:13;;;;;;;33.07;15.63;;;;;;;-8.65;65.01;99908.94;30626035;28;97282;-67
2022/12/13 22:45:14;;;;;;;27.77;15.73;;;;;;;-9.12;66.36;99895.06;30623972;28;96771;-69
2022/12/13 23:00:14;;;;;;;23.87;12.00;;;;;;;-9.31;66.81;99874.22;30623855;28;97630;-66
2022/12/13 23:15:15;;;;;;;30.93;17.47;;;;;;;-9.52;66.63;99861.16;30622009;28;96544;-69
2022/12/13 23:30:17;;;;;;;26.73;15.73;;;;;;;-9.93;67.54;99842.72;30621642;28;97409;-67
2022/12/13 23:45:17;;;;;;;15.00;9.13;;;;;;;-10.10;68.42;99814.91;30620097;28;96674;-70
